Terminal Aerodrome Forecast
Issued by NWS Charleston, SC

Home | Current Version | Previous Version | Text Only | Print | Product List | Glossary On
Versions: 1 2 3 4 5 6 7 8 9 10 11 12 13
079
FTUS42 KCHS 251130
TAFSAV
TAF
KSAV 251130Z 2512/2612 VRB03KT P6SM SCT100
     FM251500 23005KT P6SM SCT040
     FM251900 VRB03KT 4SM -TSRA BR BKN040CB
      TEMPO 2519/2522 2SM +TSRA BR BKN025CB
     FM252300 20005KT P6SM -SHRA BKN060
     FM260200 VRB03KT P6SM BKN080=

USA.gov is the U.S. government's official web portal to all federal, state and local government web resources and services.